Time;durP1;ratioP1;P1;durP2;ratioP2;P2;SDS_P1;SDS_P2;PMS_P1;PMS_P2;Temp;Humidity;BMP_temperature;BMP_pressure;BME280_temperature;BME280_humidity;BME280_pressure;Samples;Min_cycle;Max_cycle;Signal;HPM_P1;HPM_P2
2021/11/04 00:00:10;;;;;;;14.68;9.98;;;29.10;84.70;;;;;;5145815;27;20027;-46
2021/11/04 00:02:37;;;;;;;20.10;10.25;;;29.20;84.80;;;;;;5144870;27;20030;-46
2021/11/04 00:05:10;;;;;;;19.40;8.63;;;29.10;84.70;;;;;;5143910;27;20019;-49
2021/11/04 00:07:38;;;;;;;16.92;11.00;;;29.10;84.50;;;;;;5128376;27;20117;-47
2021/11/04 00:10:06;;;;;;;16.75;10.23;;;29.00;85.60;;;;;;5124638;28;20023;-47
2021/11/04 00:12:33;;;;;;;16.65;10.05;;;28.90;85.40;;;;;;5124891;28;20098;-51
2021/11/04 00:15:00;;;;;;;15.93;9.95;;;28.80;85.50;;;;;;5131183;27;20057;-44
2021/11/04 00:17:27;;;;;;;18.55;11.25;;;28.80;85.60;;;;;;5141209;27;20011;-47
2021/11/04 00:19:53;;;;;;;22.30;12.65;;;28.80;85.80;;;;;;5145169;27;20026;-49
2021/11/04 00:22:21;;;;;;;19.88;12.82;;;28.80;86.30;;;;;;5145119;27;20100;-49
2021/11/04 00:24:47;;;;;;;19.20;11.27;;;28.80;85.80;;;;;;5144074;27;20019;-45
2021/11/04 00:27:14;;;;;;;17.63;10.63;;;28.90;85.80;;;;;;5144133;27;20019;-46
2021/11/04 00:29:41;;;;;;;16.20;10.23;;;28.80;85.50;;;;;;5144649;27;20023;-48
2021/11/04 00:32:08;;;;;;;15.52;10.60;;;28.90;85.40;;;;;;5143882;27;20071;-52
2021/11/04 00:34:34;;;;;;;13.27;9.50;;;28.90;85.30;;;;;;5144706;27;20083;-52
2021/11/04 00:37:16;;;;;;;16.33;9.77;;;28.80;85.00;;;;;;5143753;27;20043;-50
2021/11/04 00:39:42;;;;;;;13.17;8.80;;;28.80;85.00;;;;;;5142547;27;20079;-52
2021/11/04 00:42:09;;;;;;;13.70;9.20;;;28.80;85.00;;;;;;5143347;27;20015;-46
2021/11/04 00:44:36;;;;;;;14.15;8.52;;;28.80;84.80;;;;;;5142880;27;20407;-48
2021/11/04 00:47:03;;;;;;;11.80;8.02;;;28.80;84.70;;;;;;5143026;28;20124;-48
2021/11/04 00:49:30;;;;;;;12.65;7.65;;;28.80;84.70;;;;;;5124652;28;20469;-49
2021/11/04 00:51:56;;;;;;;10.77;7.72;;;28.80;84.80;;;;;;5143475;28;20019;-47
2021/11/04 00:54:23;;;;;;;18.58;10.27;;;28.80;84.90;;;;;;5126605;28;20030;-50
2021/11/04 00:56:50;;;;;;;21.90;13.52;;;28.80;84.80;;;;;;5145476;27;20027;-49
2021/11/04 00:59:19;;;;;;;21.10;13.18;;;28.80;84.70;;;;;;5148825;27;20018;-50
2021/11/04 01:01:47;;;;;;;24.10;13.50;;;28.70;84.70;;;;;;5149088;27;20015;-51
2021/11/04 01:04:13;;;;;;;26.75;14.85;;;28.70;84.60;;;;;;5131037;27;20019;-55
2021/11/04 01:06:40;;;;;;;26.63;15.82;;;28.70;84.70;;;;;;5149117;27;20015;-48
2021/11/04 01:09:07;;;;;;;28.98;17.05;;;28.70;84.70;;;;;;5149067;27;20025;-48
2021/11/04 01:11:34;;;;;;;24.33;17.23;;;28.70;84.70;;;;;;5148954;27;20287;-53
2021/11/04 01:14:01;;;;;;;25.45;16.67;;;28.70;84.50;;;;;;5148660;27;20019;-51
2021/11/04 01:16:31;;;;;;;25.17;15.43;;;28.70;84.20;;;;;;5148736;27;20052;-50
2021/11/04 01:18:58;;;;;;;24.98;15.07;;;28.70;84.00;;;;;;5148744;27;20075;-50
2021/11/04 01:21:25;;;;;;;24.33;14.38;;;28.60;83.70;;;;;;5129880;27;20019;-50
2021/11/04 01:23:51;;;;;;;30.80;20.30;;;28.60;83.50;;;;;;5148649;27;20023;-48
2021/11/04 01:26:18;;;;;;;25.98;18.40;;;28.60;83.40;;;;;;5148621;27;20033;-48
2021/11/04 01:28:45;;;;;;;21.85;14.25;;;28.60;83.10;;;;;;5149038;27;20262;-48
2021/11/04 01:31:12;;;;;;;25.23;14.68;;;28.60;82.80;;;;;;5148179;27;20038;-48
2021/11/04 01:33:38;;;;;;;19.30;11.93;;;28.60;82.70;;;;;;5130486;27;20027;-48
2021/11/04 01:36:05;;;;;;;16.13;10.75;;;28.60;82.20;;;;;;5148562;27;20379;-45
2021/11/04 01:38:32;;;;;;;19.30;9.07;;;28.60;81.80;;;;;;5148896;27;20060;-49
2021/11/04 01:40:59;;;;;;;17.88;9.50;;;28.60;81.80;;;;;;5147804;27;20015;-47
2021/11/04 01:43:27;;;;;;;17.30;8.45;;;28.60;81.80;;;;;;5147838;27;20106;-49
2021/11/04 01:45:54;;;;;;;11.85;7.70;;;28.60;81.90;;;;;;5148182;27;20046;-49
2021/11/04 01:48:21;;;;;;;13.30;7.35;;;28.60;81.70;;;;;;5129481;27;20055;-53
2021/11/04 01:50:51;;;;;;;10.40;6.80;;;28.60;81.50;;;;;;5148515;27;20014;-47
2021/11/04 01:53:19;;;;;;;15.40;6.47;;;28.60;81.40;;;;;;5148195;27;20072;-48
2021/11/04 01:55:47;;;;;;;15.68;6.90;;;28.60;81.20;;;;;;5148245;27;20453;-49
2021/11/04 01:58:14;;;;;;;13.70;6.32;;;28.60;81.10;;;;;;5147805;27;20263;-46
2021/11/04 02:00:40;;;;;;;11.15;6.70;;;28.60;81.10;;;;;;5147338;27;20015;-47
2021/11/04 02:03:29;;;;;;;9.00;5.85;;;28.60;81.10;;;;;;5148736;27;20100;-49
2021/11/04 02:06:17;;;;;;;12.60;6.05;;;28.50;80.60;;;;;;5148069;27;20007;-48
2021/11/04 02:08:54;;;;;;;8.52;5.70;;;28.50;80.60;;;;;;5147090;27;20047;-51
2021/11/04 02:11:24;;;;;;;8.43;5.75;;;28.50;80.60;;;;;;5147537;27;20019;-49
2021/11/04 02:13:58;;;;;;;12.68;5.78;;;28.50;80.60;;;;;;5129357;27;20033;-45
2021/11/04 02:16:27;;;;;;;11.48;6.50;;;28.50;80.40;;;;;;5147542;27;20021;-47
2021/11/04 02:19:04;;;;;;;6.95;6.03;;;28.50;80.30;;;;;;5148251;27;20023;-55
2021/11/04 02:21:39;;;;;;;8.32;5.72;;;28.50;80.10;;;;;;5128727;27;20212;-47
2021/11/04 02:24:22;;;;;;;13.20;9.50;;;28.50;79.80;;;;;;5147512;27;20019;-49
2021/11/04 02:26:51;;;;;;;;;;;28.50;79.70;;;;;;5147621;27;20086;-46
2021/11/04 02:29:19;;;;;;;39.22;29.08;;;28.50;79.70;;;;;;5146932;27;19899;-51
2021/11/04 02:31:48;;;;;;;39.25;27.45;;;28.50;79.80;;;;;;5147486;27;20034;-49
2021/11/04 02:34:15;;;;;;;34.78;22.23;;;28.50;79.80;;;;;;5147281;27;20022;-48
2021/11/04 02:36:43;;;;;;;27.10;17.73;;;28.50;79.80;;;;;;5147201;27;20062;-46
2021/11/04 02:39:14;;;;;;;23.58;14.45;;;28.50;79.70;;;;;;5129259;27;20075;-46
2021/11/04 02:41:43;;;;;;;21.55;12.82;;;28.50;79.70;;;;;;5147484;27;20031;-54
2021/11/04 02:44:11;;;;;;;17.10;11.00;;;28.40;79.40;;;;;;5146989;27;20398;-47
2021/11/04 02:46:38;;;;;;;14.57;9.73;;;28.50;79.50;;;;;;5147175;27;20019;-47
2021/11/04 02:49:06;;;;;;;18.05;9.55;;;28.50;79.50;;;;;;5146915;27;20047;-46
2021/11/04 02:51:36;;;;;;;34.83;11.07;;;28.40;79.50;;;;;;5146381;27;20030;-46
2021/11/04 02:54:05;;;;;;;34.35;9.50;;;28.40;79.60;;;;;;5128562;27;20043;-51
2021/11/04 02:56:53;;;;;;;23.73;8.05;;;28.40;79.50;;;;;;5146669;27;20078;-50
2021/11/04 02:59:22;;;;;;;16.50;7.75;;;28.40;79.50;;;;;;5128523;27;20015;-49
2021/11/04 03:01:51;;;;;;;25.42;8.93;;;28.40;79.50;;;;;;5146262;27;20027;-49
2021/11/04 03:04:19;;;;;;;17.92;7.78;;;28.40;79.60;;;;;;5146767;27;20188;-47
2021/11/04 03:06:46;;;;;;;11.93;7.60;;;28.40;79.50;;;;;;5128434;27;20068;-46
2021/11/04 03:09:14;;;;;;;16.17;6.85;;;28.40;79.60;;;;;;5146930;27;20083;-50
2021/11/04 03:11:41;;;;;;;19.80;6.80;;;28.40;79.60;;;;;;5146505;27;20035;-47
2021/11/04 03:14:08;;;;;;;9.50;5.50;;;28.40;79.70;;;;;;5146705;27;20030;-48
2021/11/04 03:16:38;;;;;;;12.73;6.60;;;28.40;79.90;;;;;;5146205;27;20359;-46
2021/11/04 03:19:07;;;;;;;11.90;5.85;;;28.30;79.70;;;;;;5146646;27;20021;-52
2021/11/04 03:21:38;;;;;;;9.25;5.47;;;28.40;80.00;;;;;;5146131;27;20027;-45
2021/11/04 03:24:05;;;;;;;9.70;5.93;;;28.30;80.00;;;;;;5146086;27;20019;-45
2021/11/04 03:26:38;;;;;;;9.93;5.60;;;28.30;80.00;;;;;;5146063;27;20044;-46
2021/11/04 03:29:07;;;;;;;10.43;6.00;;;28.30;80.00;;;;;;5146112;27;20039;-48
2021/11/04 03:31:37;;;;;;;9.57;5.72;;;28.20;79.90;;;;;;5145530;27;20023;-46
2021/11/04 03:34:06;;;;;;;11.32;5.75;;;28.30;80.20;;;;;;5145380;27;20244;-50
2021/11/04 03:36:35;;;;;;;12.57;6.03;;;28.20;80.30;;;;;;5127761;27;20030;-47
2021/11/04 03:39:04;;;;;;;12.05;6.15;;;28.20;80.50;;;;;;5127994;27;20022;-45
2021/11/04 03:41:32;;;;;;;13.60;5.63;;;28.20;80.50;;;;;;5145758;27;20011;-49
2021/11/04 03:43:59;;;;;;;6.82;5.40;;;28.20;80.60;;;;;;5145216;27;20043;-48
2021/11/04 03:46:26;;;;;;;8.20;5.55;;;28.20;80.50;;;;;;5145671;27;20038;-46
2021/11/04 03:48:53;;;;;;;10.90;5.80;;;28.20;80.40;;;;;;5145755;27;20029;-45
2021/11/04 03:51:24;;;;;;;13.95;5.55;;;28.10;80.40;;;;;;5127478;27;20050;-48
2021/11/04 03:53:51;;;;;;;9.88;5.80;;;28.10;80.60;;;;;;5145944;27;20023;-48
2021/11/04 03:56:21;;;;;;;12.48;6.18;;;28.10;80.50;;;;;;5145987;27;20291;-48
2021/11/04 03:58:48;;;;;;;9.02;6.32;;;28.10;80.50;;;;;;5145183;27;20250;-47
2021/11/04 04:01:16;;;;;;;10.05;6.03;;;28.10;80.70;;;;;;5145689;27;20024;-49
2021/11/04 04:03:45;;;;;;;8.13;6.05;;;28.10;80.60;;;;;;5128309;27;20029;-45
2021/11/04 04:06:12;;;;;;;8.27;5.88;;;28.10;80.70;;;;;;5145517;27;20234;-50
2021/11/04 04:08:45;;;;;;;11.18;6.38;;;28.00;80.60;;;;;;5145777;27;20216;-48
2021/11/04 04:11:11;;;;;;;12.00;6.28;;;28.00;80.70;;;;;;5145365;27;20053;-48
2021/11/04 04:13:38;;;;;;;8.25;6.32;;;28.00;80.80;;;;;;5146117;27;20139;-52
2021/11/04 04:16:05;;;;;;;8.35;5.90;;;28.00;81.20;;;;;;5145418;27;20087;-47
2021/11/04 04:18:34;;;;;;;9.70;6.22;;;28.00;81.40;;;;;;5145545;27;20089;-46
2021/11/04 04:21:07;;;;;;;8.82;6.20;;;28.00;82.00;;;;;;5145838;27;20075;-47
2021/11/04 04:23:34;;;;;;;12.38;9.40;;;28.00;81.60;;;;;;5145826;27;20051;-48
2021/11/04 04:26:01;;;;;;;14.48;8.45;;;28.00;81.70;;;;;;5145111;27;20296;-54
2021/11/04 04:28:28;;;;;;;12.13;7.78;;;27.90;81.90;;;;;;5127752;27;20367;-46
2021/11/04 04:30:54;;;;;;;11.32;6.90;;;28.00;82.30;;;;;;5145383;27;20334;-44
2021/11/04 04:33:21;;;;;;;11.57;6.88;;;28.00;82.20;;;;;;5145105;27;20102;-44
2021/11/04 04:35:55;;;;;;;10.55;6.55;;;28.00;82.40;;;;;;5145077;27;20208;-50
2021/11/04 04:38:23;;;;;;;13.32;6.88;;;28.00;82.90;;;;;;5145564;27;20037;-47
2021/11/04 04:40:50;;;;;;;19.95;6.82;;;28.00;83.20;;;;;;5144729;27;20011;-46
2021/11/04 04:43:17;;;;;;;20.58;7.32;;;27.90;83.60;;;;;;5145408;27;20031;-44
2021/11/04 04:45:44;;;;;;;16.70;6.57;;;27.90;83.80;;;;;;5145026;28;20102;-44
2021/11/04 04:48:11;;;;;;;15.52;5.90;;;28.00;84.10;;;;;;5126189;28;20050;-47
2021/11/04 04:50:39;;;;;;;10.88;5.90;;;27.90;84.10;;;;;;5144522;28;20095;-44
2021/11/04 04:53:07;;;;;;;11.38;6.25;;;27.90;84.30;;;;;;5144964;28;20242;-46
2021/11/04 04:55:34;;;;;;;12.13;6.38;;;27.90;84.50;;;;;;5126039;28;20019;-49
2021/11/04 04:58:01;;;;;;;9.07;6.28;;;27.90;84.60;;;;;;5144845;28;20031;-47
2021/11/04 05:00:28;;;;;;;10.38;6.43;;;27.90;84.70;;;;;;5144846;28;20031;-47
2021/11/04 05:02:55;;;;;;;10.55;6.30;;;27.90;84.90;;;;;;5144621;28;20015;-46
2021/11/04 05:05:22;;;;;;;10.50;6.70;;;27.90;85.00;;;;;;5144607;28;20024;-48
2021/11/04 05:07:48;;;;;;;12.68;6.13;;;27.90;85.20;;;;;;5145457;28;20208;-50
2021/11/04 05:10:15;;;;;;;9.20;6.63;;;27.90;85.30;;;;;;5144672;28;20015;-50
2021/11/04 05:12:44;;;;;;;11.32;6.47;;;27.90;85.50;;;;;;5144359;28;20019;-49
2021/11/04 05:15:11;;;;;;;10.50;6.43;;;27.80;85.50;;;;;;5144684;28;20024;-45
2021/11/04 05:17:57;;;;;;;11.50;6.32;;;27.80;85.60;;;;;;5144803;28;20225;-54
2021/11/04 05:20:31;;;;;;;10.63;6.88;;;27.80;85.90;;;;;;5144766;28;20088;-52
2021/11/04 05:22:57;;;;;;;14.05;6.18;;;27.80;86.10;;;;;;5144300;28;20230;-51
2021/11/04 05:25:24;;;;;;;12.07;6.43;;;27.70;86.10;;;;;;5144641;28;20090;-46
2021/11/04 05:27:51;;;;;;;13.65;6.07;;;27.70;86.30;;;;;;5144674;28;20296;-48
2021/11/04 05:34:05;;;;;;;12.35;6.70;;;27.70;86.70;;;;;;5128129;28;20039;-51
2021/11/04 05:36:32;;;;;;;12.68;6.88;;;27.70;86.90;;;;;;5134452;28;20323;-45
2021/11/04 05:38:59;;;;;;;11.80;6.60;;;27.70;86.90;;;;;;5145052;28;20035;-50
2021/11/04 05:41:26;;;;;;;10.65;6.78;;;27.70;87.10;;;;;;5144300;28;20203;-47
2021/11/04 05:43:53;;;;;;;14.43;6.90;;;27.70;87.10;;;;;;5145513;27;20043;-49
2021/11/04 05:46:19;;;;;;;14.73;6.80;;;27.70;87.20;;;;;;5147961;27;20023;-47
2021/11/04 05:48:46;;;;;;;12.60;7.05;;;27.70;87.30;;;;;;5148607;27;20031;-52
2021/11/04 05:51:13;;;;;;;12.27;6.85;;;27.70;87.30;;;;;;5148135;27;20015;-49
2021/11/04 05:53:39;;;;;;;10.77;6.15;;;27.70;87.50;;;;;;5147551;27;20023;-47
2021/11/04 05:56:06;;;;;;;10.27;6.68;;;27.60;87.50;;;;;;5148177;27;20023;-51
2021/11/04 05:58:33;;;;;;;10.15;6.80;;;27.60;87.60;;;;;;5147949;27;20026;-52
2021/11/04 06:01:00;;;;;;;8.73;6.72;;;27.60;87.70;;;;;;5148304;27;20030;-48
2021/11/04 06:03:26;;;;;;;11.60;6.97;;;27.60;87.80;;;;;;5130223;27;20011;-51
2021/11/04 06:05:53;;;;;;;9.82;6.60;;;27.60;87.90;;;;;;5147304;27;20027;-46
2021/11/04 06:08:20;;;;;;;11.10;6.72;;;27.60;87.80;;;;;;5129127;27;20189;-50
2021/11/04 06:10:46;;;;;;;13.45;6.60;;;27.60;88.30;;;;;;5147874;27;20027;-49
2021/11/04 06:13:13;;;;;;;12.98;6.38;;;27.50;87.80;;;;;;5147899;27;20189;-45
2021/11/04 06:15:40;;;;;;;11.75;6.72;;;27.50;87.90;;;;;;5147874;27;20027;-54
2021/11/04 06:18:06;;;;;;;10.23;6.55;;;27.50;88.00;;;;;;5147089;27;20023;-49
2021/11/04 06:20:33;;;;;;;12.57;6.50;;;27.50;87.90;;;;;;5148080;27;20303;-48
2021/11/04 06:23:00;;;;;;;11.75;6.82;;;27.50;87.90;;;;;;5147107;27;20023;-46
2021/11/04 06:25:26;;;;;;;11.55;6.57;;;27.50;88.00;;;;;;5147864;27;20019;-55
2021/11/04 06:27:53;;;;;;;12.13;6.88;;;27.50;87.90;;;;;;5147457;27;20023;-46
2021/11/04 06:30:20;;;;;;;9.02;6.65;;;27.50;88.00;;;;;;5147470;27;20207;-45
2021/11/04 06:32:47;;;;;;;11.27;7.32;;;27.50;88.10;;;;;;5146781;27;20023;-48
2021/11/04 06:35:14;;;;;;;10.48;7.07;;;27.50;88.20;;;;;;5147674;27;20039;-46
2021/11/04 06:37:40;;;;;;;13.75;7.15;;;27.50;88.10;;;;;;5147153;27;20019;-46
2021/11/04 06:40:08;;;;;;;12.27;7.18;;;27.40;88.20;;;;;;5147559;27;20109;-47
2021/11/04 06:42:36;;;;;;;14.15;7.53;;;27.40;88.80;;;;;;5146926;27;20022;-52
2021/11/04 06:45:04;;;;;;;12.32;7.22;;;27.40;88.50;;;;;;5146613;27;20059;-48
2021/11/04 06:47:39;;;;;;;13.35;7.60;;;27.40;88.40;;;;;;5146929;27;20023;-45
2021/11/04 06:50:07;;;;;;;10.27;7.28;;;27.40;88.50;;;;;;5147418;27;20207;-53
2021/11/04 06:52:38;;;;;;;12.90;7.30;;;27.40;88.60;;;;;;5146700;27;20053;-46
2021/11/04 06:55:06;;;;;;;10.85;6.85;;;27.40;88.50;;;;;;5146480;27;20027;-46
2021/11/04 06:57:39;;;;;;;11.70;6.68;;;27.40;88.50;;;;;;5146744;27;20108;-45
2021/11/04 07:00:06;;;;;;;;;;;27.40;88.30;;;;;;5147027;27;20051;-49
2021/11/04 07:02:43;;;;;;;10.82;6.82;;;27.40;88.20;;;;;;5146356;27;19904;-46
2021/11/04 07:05:13;;;;;;;10.52;6.72;;;27.30;88.10;;;;;;5147074;27;20117;-48
2021/11/04 07:07:48;;;;;;;13.10;6.85;;;27.30;87.80;;;;;;5146372;27;20212;-46
2021/11/04 07:10:19;;;;;;;10.27;6.80;;;27.30;87.80;;;;;;5146447;27;20034;-51
2021/11/04 07:12:48;;;;;;;15.18;6.68;;;27.30;87.80;;;;;;5146568;27;20327;-47
2021/11/04 07:15:20;;;;;;;9.35;6.50;;;27.30;87.80;;;;;;5146314;27;20039;-50
2021/11/04 07:17:47;;;;;;;9.32;7.03;;;27.30;87.80;;;;;;5145970;27;20026;-51
2021/11/04 07:20:17;;;;;;;9.63;6.60;;;27.30;87.70;;;;;;5146359;27;20094;-48
2021/11/04 07:22:47;;;;;;;9.75;6.72;;;27.30;87.60;;;;;;5146114;27;20043;-48
2021/11/04 07:25:15;;;;;;;10.50;6.50;;;27.30;87.50;;;;;;5146269;27;20019;-48
2021/11/04 07:28:12;;;;;;;8.90;6.78;;;27.30;87.30;;;;;;5146379;27;20034;-47
2021/11/04 07:30:40;;;;;;;12.00;7.25;;;27.30;87.20;;;;;;5146116;27;20027;-55
2021/11/04 07:33:08;;;;;;;10.20;6.57;;;27.30;87.20;;;;;;5146102;27;20019;-51
2021/11/04 07:35:40;;;;;;;11.07;7.00;;;27.20;87.20;;;;;;5146144;27;20189;-49
2021/11/04 07:38:09;;;;;;;11.48;6.78;;;27.20;87.10;;;;;;5146136;27;20211;-48
2021/11/04 07:40:36;;;;;;;13.88;6.57;;;27.20;87.20;;;;;;5146232;27;20023;-52
2021/11/04 07:43:03;;;;;;;10.18;6.53;;;27.20;87.20;;;;;;5146034;27;20053;-46
2021/11/04 07:45:31;;;;;;;10.80;7.10;;;27.20;87.20;;;;;;5146246;27;20047;-55
2021/11/04 07:47:58;;;;;;;12.60;7.20;;;27.20;87.30;;;;;;5145725;27;20216;-47
2021/11/04 07:50:28;;;;;;;10.73;6.97;;;27.20;87.30;;;;;;5146192;27;20023;-47
2021/11/04 07:52:56;;;;;;;10.65;7.35;;;27.20;87.30;;;;;;5145492;27;20046;-46
2021/11/04 07:55:23;;;;;;;9.35;7.28;;;27.10;87.20;;;;;;5145323;27;20031;-50
2021/11/04 07:57:50;;;;;;;13.73;7.43;;;27.20;87.30;;;;;;5145721;27;20117;-50
2021/11/04 08:00:19;;;;;;;11.70;6.72;;;27.20;87.50;;;;;;5145898;27;20086;-49
2021/11/04 08:02:46;;;;;;;14.90;7.00;;;27.10;87.50;;;;;;5145102;27;20019;-49
2021/11/04 08:05:16;;;;;;;14.18;7.10;;;27.10;87.70;;;;;;5145506;27;20034;-48
2021/11/04 08:07:43;;;;;;;14.52;7.32;;;27.10;87.70;;;;;;5144400;27;20083;-53
2021/11/04 08:10:12;;;;;;;10.57;7.63;;;27.10;87.80;;;;;;5145637;27;20027;-46
2021/11/04 08:12:39;;;;;;;11.70;7.20;;;27.10;87.80;;;;;;5145405;27;20026;-49
2021/11/04 08:15:07;;;;;;;12.40;7.45;;;27.10;87.80;;;;;;5145775;27;20071;-47
2021/11/04 08:17:35;;;;;;;12.60;7.50;;;27.10;87.80;;;;;;5144904;27;20015;-46
2021/11/04 08:20:03;;;;;;;10.48;7.00;;;27.10;87.80;;;;;;5145737;27;20316;-47
2021/11/04 08:22:31;;;;;;;11.00;7.07;;;27.10;87.90;;;;;;5144748;27;20041;-46
2021/11/04 08:24:58;;;;;;;9.85;6.90;;;27.10;87.90;;;;;;5145435;27;20023;-46
2021/11/04 08:27:24;;;;;;;14.55;6.50;;;27.10;87.70;;;;;;5145131;27;20019;-49
2021/11/04 08:29:53;;;;;;;12.13;7.03;;;27.10;87.70;;;;;;5145586;27;20051;-46
2021/11/04 08:32:20;;;;;;;11.35;7.10;;;27.10;87.70;;;;;;5144368;27;20023;-46
2021/11/04 08:34:47;;;;;;;11.82;7.20;;;27.10;87.80;;;;;;5126991;27;20328;-52
2021/11/04 08:37:13;;;;;;;9.75;6.88;;;27.10;87.80;;;;;;5144978;27;20049;-50
2021/11/04 08:39:40;;;;;;;11.45;7.15;;;27.10;87.80;;;;;;5145259;27;20307;-45
2021/11/04 08:42:07;;;;;;;8.57;6.53;;;27.10;87.70;;;;;;5144722;27;20055;-46
2021/11/04 08:44:35;;;;;;;13.98;7.40;;;27.10;87.70;;;;;;5144814;27;20130;-49
2021/11/04 08:47:06;;;;;;;10.93;7.32;;;27.10;87.60;;;;;;5144802;27;20015;-46
2021/11/04 08:49:33;;;;;;;8.70;6.72;;;27.10;87.60;;;;;;5145201;28;20019;-45
2021/11/04 08:51:59;;;;;;;9.63;6.70;;;27.10;87.60;;;;;;5144906;28;20019;-45
2021/11/04 08:54:27;;;;;;;15.65;7.45;;;27.10;87.60;;;;;;5144887;28;20090;-51
2021/11/04 08:56:54;;;;;;;7.68;6.72;;;27.10;87.60;;;;;;5144310;28;20181;-46
2021/11/04 08:59:21;;;;;;;10.38;6.93;;;27.00;87.40;;;;;;5145163;28;20080;-48
2021/11/04 09:01:48;;;;;;;12.13;7.10;;;27.00;87.40;;;;;;5144970;28;20014;-51
2021/11/04 09:04:15;;;;;;;10.10;6.90;;;27.00;87.50;;;;;;5144951;28;20019;-47
2021/11/04 09:06:42;;;;;;;10.50;6.82;;;27.00;87.50;;;;;;5144602;28;20064;-45
2021/11/04 09:09:10;;;;;;;13.73;7.22;;;27.00;87.50;;;;;;5144644;28;20035;-47
2021/11/04 09:11:37;;;;;;;9.70;6.68;;;27.00;87.40;;;;;;5144756;28;20039;-45
2021/11/04 09:14:06;;;;;;;8.30;6.85;;;27.00;87.90;;;;;;5144609;28;20027;-45
2021/11/04 09:16:33;;;;;;;9.38;6.65;;;27.00;87.30;;;;;;5144384;28;20019;-48
2021/11/04 09:19:00;;;;;;;10.02;6.93;;;27.00;87.40;;;;;;5147196;27;20023;-46
2021/11/04 09:21:26;;;;;;;12.57;6.55;;;27.00;87.30;;;;;;5148882;27;20019;-48
2021/11/04 09:23:54;;;;;;;11.45;6.88;;;27.00;87.30;;;;;;5147926;27;20034;-52
2021/11/04 09:26:21;;;;;;;8.68;6.82;;;27.00;87.40;;;;;;5148550;27;20063;-48
2021/11/04 09:28:48;;;;;;;9.82;7.35;;;27.00;87.40;;;;;;5148328;27;20237;-49
2021/11/04 09:31:14;;;;;;;20.17;7.82;;;26.90;87.70;;;;;;5148511;27;20022;-47
2021/11/04 09:33:44;;;;;;;15.77;7.85;;;27.00;88.50;;;;;;5148275;27;20115;-45
2021/11/04 09:36:11;;;;;;;16.75;8.13;;;27.00;89.20;;;;;;5147860;27;20026;-49
2021/11/04 09:38:38;;;;;;;13.20;8.35;;;27.00;90.00;;;;;;5147775;27;20026;-46
2021/11/04 09:41:04;;;;;;;18.77;7.35;;;26.90;89.90;;;;;;5148341;27;20060;-46
2021/11/04 09:43:33;;;;;;;12.10;7.40;;;26.90;90.00;;;;;;5148147;27;20239;-46
2021/11/04 09:46:02;;;;;;;12.32;7.10;;;26.90;90.10;;;;;;5148013;27;20293;-48
2021/11/04 09:48:31;;;;;;;14.93;8.05;;;26.90;90.20;;;;;;5148086;27;20042;-46
2021/11/04 09:50:58;;;;;;;13.80;8.15;;;26.90;90.40;;;;;;5147840;27;20055;-48
2021/11/04 09:53:25;;;;;;;14.05;7.63;;;26.90;90.50;;;;;;5147766;27;20019;-53
2021/11/04 09:55:51;;;;;;;12.48;7.30;;;26.90;90.60;;;;;;5147976;27;20125;-49
2021/11/04 09:58:18;;;;;;;10.93;7.22;;;26.90;90.60;;;;;;5147288;27;20212;-53
2021/11/04 10:00:45;;;;;;;10.77;8.07;;;26.90;90.60;;;;;;5148155;27;20037;-52
2021/11/04 10:03:14;;;;;;;11.90;7.68;;;26.80;90.70;;;;;;5148100;27;20019;-53
2021/11/04 10:05:52;;;;;;;12.18;7.43;;;26.80;90.80;;;;;;5147964;27;20060;-54
2021/11/04 10:08:38;;;;;;;11.68;7.85;;;26.80;91.00;;;;;;5147970;27;20035;-50
2021/11/04 10:11:11;;;;;;;10.52;7.80;;;26.90;91.00;;;;;;5147778;27;20094;-47
2021/11/04 10:13:38;;;;;;;;;;;26.80;91.00;;;;;;5147847;27;20304;-51
2021/11/04 10:16:06;;;;;;;12.50;7.80;;;26.80;91.00;;;;;;5147843;27;19909;-48
2021/11/04 10:18:43;;;;;;;11.90;7.63;;;26.80;91.00;;;;;;5147499;27;20026;-54
2021/11/04 10:21:10;;;;;;;13.63;6.90;;;26.80;91.00;;;;;;5147465;27;20019;-50
2021/11/04 10:23:48;;;;;;;8.93;7.32;;;26.80;91.00;;;;;;5146960;27;20015;-52
2021/11/04 10:26:22;;;;;;;9.02;7.03;;;26.80;91.00;;;;;;5147431;27;20023;-50
2021/11/04 10:28:57;;;;;;;10.50;6.45;;;26.80;91.00;;;;;;5147119;27;20030;-45
2021/11/04 10:31:23;;;;;;;10.57;6.60;;;26.80;90.80;;;;;;5146129;27;20022;-51
2021/11/04 10:33:51;;;;;;;17.48;7.25;;;26.80;90.80;;;;;;5147334;27;20103;-53
2021/11/04 10:36:21;;;;;;;16.45;6.75;;;26.80;91.10;;;;;;5129473;27;20250;-54
2021/11/04 10:39:01;;;;;;;19.52;7.20;;;26.80;90.80;;;;;;5147199;27;20303;-55
2021/11/04 10:41:41;;;;;;;21.42;6.97;;;26.80;90.70;;;;;;5146627;27;20038;-55
2021/11/04 10:44:12;;;;;;;28.98;7.78;;;26.80;90.60;;;;;;5147254;27;20054;-56
2021/11/04 10:46:47;;;;;;;22.80;7.40;;;26.80;90.50;;;;;;5147003;27;20203;-51
2021/11/04 10:49:16;;;;;;;13.98;7.03;;;26.80;90.50;;;;;;5147268;27;20099;-45
2021/11/04 10:51:44;;;;;;;15.20;7.38;;;26.70;90.50;;;;;;5146990;27;20022;-50
2021/11/04 10:54:14;;;;;;;25.38;8.70;;;26.70;90.50;;;;;;5146833;27;20353;-51
2021/11/04 10:56:43;;;;;;;14.93;6.90;;;26.60;90.80;;;;;;5146619;27;20030;-46
2021/11/04 10:59:11;;;;;;;15.27;7.03;;;26.60;90.80;;;;;;5146837;27;20046;-46
2021/11/04 11:01:42;;;;;;;17.00;6.97;;;26.50;90.70;;;;;;5146392;27;20082;-43
2021/11/04 11:04:13;;;;;;;11.73;6.40;;;26.40;91.00;;;;;;5146584;27;20124;-45
2021/11/04 11:06:41;;;;;;;13.45;7.30;;;26.40;91.00;;;;;;5128403;27;20023;-47
2021/11/04 11:09:16;;;;;;;14.23;7.60;;;26.40;91.10;;;;;;5146359;27;20041;-46
2021/11/04 11:11:45;;;;;;;11.93;7.80;;;26.40;91.20;;;;;;5146458;27;20215;-47
2021/11/04 11:14:13;;;;;;;11.85;7.60;;;26.50;91.20;;;;;;5146713;27;20060;-48
2021/11/04 11:16:43;;;;;;;12.35;7.40;;;26.50;91.30;;;;;;5145881;27;20027;-49
2021/11/04 11:19:11;;;;;;;10.43;7.43;;;26.50;91.30;;;;;;5146213;27;20023;-44
2021/11/04 11:21:50;;;;;;;14.15;7.93;;;26.50;91.30;;;;;;5146018;27;20030;-44
2021/11/04 11:24:23;;;;;;;12.82;8.40;;;26.50;91.30;;;;;;5146321;27;20038;-52
2021/11/04 11:26:52;;;;;;;9.60;8.25;;;26.50;91.40;;;;;;5146019;27;20031;-48
2021/11/04 11:29:19;;;;;;;11.43;8.05;;;26.50;91.30;;;;;;5145818;27;20016;-48
2021/11/04 11:31:51;;;;;;;12.60;8.35;;;26.60;91.20;;;;;;5146471;27;20063;-44
2021/11/04 11:34:20;;;;;;;10.82;8.10;;;26.50;91.20;;;;;;5146163;27;20117;-49
2021/11/04 11:37:11;;;;;;;11.77;8.95;;;26.50;91.20;;;;;;5145925;27;20060;-49
2021/11/04 11:39:47;;;;;;;11.85;9.98;;;26.60;91.30;;;;;;5145493;27;20027;-48
2021/11/04 11:42:18;;;;;;;11.55;9.05;;;26.60;91.30;;;;;;5127745;27;20042;-45
2021/11/04 11:44:46;;;;;;;11.57;8.88;;;26.60;91.50;;;;;;5145157;27;20307;-47
2021/11/04 11:47:15;;;;;;;11.35;9.07;;;26.60;91.50;;;;;;5145953;27;20027;-47
2021/11/04 11:49:45;;;;;;;11.18;9.05;;;26.60;91.60;;;;;;5146198;27;20026;-45
2021/11/04 11:52:53;;;;;;;14.60;9.80;;;26.60;91.60;;;;;;5146113;27;20030;-53
2021/11/04 11:55:39;;;;;;;12.52;8.73;;;26.60;91.50;;;;;;5062646;28;20028;-47
2021/11/04 11:58:16;;;;;;;13.00;8.15;;;26.60;91.60;;;;;;5062885;28;20289;-45
2021/11/04 12:00:54;;;;;;;12.27;8.63;;;26.60;91.50;;;;;;5120645;27;20308;-52
2021/11/04 12:03:35;;;;;;;11.98;8.57;;;26.60;91.50;;;;;;5145446;27;20030;-50
2021/11/04 12:06:28;;;;;;;12.00;8.27;;;26.60;91.50;;;;;;5145421;27;20019;-48
2021/11/04 12:08:56;;;;;;;9.88;7.72;;;26.60;91.40;;;;;;5114509;27;20068;-46
2021/11/04 12:11:36;;;;;;;11.43;8.05;;;26.60;91.40;;;;;;5145426;27;20034;-52
2021/11/04 12:14:21;;;;;;;11.15;8.13;;;26.60;91.50;;;;;;5145567;27;20208;-52
2021/11/04 12:17:03;;;;;;;12.43;8.50;;;26.60;91.50;;;;;;5145613;27;20023;-47
2021/11/04 12:19:41;;;;;;;12.48;8.65;;;26.60;91.50;;;;;;5145319;27;20113;-51
2021/11/04 12:22:27;;;;;;;10.32;8.93;;;26.60;91.50;;;;;;5145568;27;20031;-48
2021/11/04 12:25:00;;;;;;;13.23;8.95;;;26.70;91.60;;;;;;5144754;27;20041;-48
2021/11/04 12:27:44;;;;;;;10.77;8.40;;;26.60;91.40;;;;;;5145590;27;20193;-49
2021/11/04 12:30:26;;;;;;;11.38;7.85;;;26.70;91.40;;;;;;5144517;27;20188;-52
2021/11/04 12:32:58;;;;;;;8.40;7.20;;;26.70;91.30;;;;;;5145139;27;20098;-49
2021/11/04 12:35:26;;;;;;;10.90;7.28;;;26.70;91.20;;;;;;5144447;27;20626;-49
2021/11/04 12:37:53;;;;;;;9.48;6.68;;;26.70;91.20;;;;;;5144885;27;20023;-47
2021/11/04 12:40:19;;;;;;;9.27;7.10;;;26.70;91.10;;;;;;5144358;27;20018;-47
2021/11/04 12:42:46;;;;;;;11.38;7.40;;;26.70;91.10;;;;;;5144839;27;20072;-51
2021/11/04 12:45:26;;;;;;;10.18;6.95;;;26.70;91.20;;;;;;5144512;27;20074;-47
2021/11/04 12:48:03;;;;;;;9.55;7.43;;;26.80;91.20;;;;;;5144555;27;20027;-50
2021/11/04 12:50:33;;;;;;;11.98;7.25;;;26.80;91.20;;;;;;5144725;28;20011;-52
2021/11/04 12:53:02;;;;;;;12.70;7.28;;;26.80;91.10;;;;;;5144326;27;20019;-48